Terminal Aerodrome Forecast
Issued by NWS

Home | Current Version | Previous Version | Text Only | Print | Product List | Glossary On
Versions: 1 2 3 4 5 6 7 8 9 10 11 12 13 14 15
000
FTUS42 KTBW 190537
TAFRSW
TAF
KRSW 190537Z 1906/2006 VRB03KT P6SM FEW250
     FM191500 25006KT P6SM FEW025 FEW250
     FM192000 27008KT P6SM VCSH SCT050 SCT250
     FM192300 33007KT P6SM SCT040=

USA.gov is the U.S. government's official web portal to all federal, state and local government web resources and services.